sensor_id;sensor_type;location;lat;lon;timestamp;P1;durP1;ratioP1;P2;durP2;ratioP2
21192;SDS011;10754;51.106;7.164;2023-08-24T00:01:03;2.97;;;1.98;;
21192;SDS011;10754;51.106;7.164;2023-08-24T00:03:29;4.80;;;1.98;;
21192;SDS011;10754;51.106;7.164;2023-08-24T00:05:54;4.13;;;2.22;;
21192;SDS011;10754;51.106;7.164;2023-08-24T00:08:20;4.18;;;2.35;;
21192;SDS011;10754;51.106;7.164;2023-08-24T00:10:45;2.65;;;2.10;;
21192;SDS011;10754;51.106;7.164;2023-08-24T00:13:12;3.67;;;2.20;;
21192;SDS011;10754;51.106;7.164;2023-08-24T00:15:38;3.38;;;2.00;;
21192;SDS011;10754;51.106;7.164;2023-08-24T00:18:05;3.13;;;2.30;;
21192;SDS011;10754;51.106;7.164;2023-08-24T00:20:31;3.72;;;2.20;;
21192;SDS011;10754;51.106;7.164;2023-08-24T00:22:58;2.60;;;2.22;;
21192;SDS011;10754;51.106;7.164;2023-08-24T00:25:24;4.85;;;2.30;;
21192;SDS011;10754;51.106;7.164;2023-08-24T00:27:50;3.80;;;2.05;;
21192;SDS011;10754;51.106;7.164;2023-08-24T00:30:19;3.15;;;1.95;;
21192;SDS011;10754;51.106;7.164;2023-08-24T00:32:45;3.50;;;2.20;;
21192;SDS011;10754;51.106;7.164;2023-08-24T00:35:10;4.90;;;2.20;;
21192;SDS011;10754;51.106;7.164;2023-08-24T00:37:36;3.83;;;1.90;;
21192;SDS011;10754;51.106;7.164;2023-08-24T00:40:03;3.08;;;2.15;;
21192;SDS011;10754;51.106;7.164;2023-08-24T00:42:33;3.78;;;2.20;;
21192;SDS011;10754;51.106;7.164;2023-08-24T00:45:02;5.68;;;2.08;;
21192;SDS011;10754;51.106;7.164;2023-08-24T00:47:27;2.85;;;2.10;;
21192;SDS011;10754;51.106;7.164;2023-08-24T00:49:54;4.10;;;2.40;;
21192;SDS011;10754;51.106;7.164;2023-08-24T00:52:20;2.88;;;2.17;;
21192;SDS011;10754;51.106;7.164;2023-08-24T00:54:45;3.15;;;2.20;;
21192;SDS011;10754;51.106;7.164;2023-08-24T00:57:12;2.20;;;1.98;;
21192;SDS011;10754;51.106;7.164;2023-08-24T00:59:38;2.13;;;1.92;;
21192;SDS011;10754;51.106;7.164;2023-08-24T01:02:04;4.10;;;1.77;;
21192;SDS011;10754;51.106;7.164;2023-08-24T01:04:30;4.20;;;2.80;;
21192;SDS011;10754;51.106;7.164;2023-08-24T01:06:55;4.68;;;2.15;;
21192;SDS011;10754;51.106;7.164;2023-08-24T01:09:21;2.38;;;2.00;;
21192;SDS011;10754;51.106;7.164;2023-08-24T01:14:36;2.55;;;2.15;;
21192;SDS011;10754;51.106;7.164;2023-08-24T01:17:27;3.15;;;2.33;;
21192;SDS011;10754;51.106;7.164;2023-08-24T01:19:54;2.42;;;2.15;;
21192;SDS011;10754;51.106;7.164;2023-08-24T01:22:29;3.08;;;2.15;;
21192;SDS011;10754;51.106;7.164;2023-08-24T01:27:29;7.88;;;2.38;;
21192;SDS011;10754;51.106;7.164;2023-08-24T01:29:57;3.90;;;2.10;;
21192;SDS011;10754;51.106;7.164;2023-08-24T01:32:24;2.38;;;1.90;;
21192;SDS011;10754;51.106;7.164;2023-08-24T01:34:50;3.15;;;2.38;;
21192;SDS011;10754;51.106;7.164;2023-08-24T01:37:15;2.70;;;2.10;;
21192;SDS011;10754;51.106;7.164;2023-08-24T01:39:50;4.82;;;2.10;;
21192;SDS011;10754;51.106;7.164;2023-08-24T01:42:26;2.60;;;1.98;;
21192;SDS011;10754;51.106;7.164;2023-08-24T01:44:54;3.25;;;2.22;;
21192;SDS011;10754;51.106;7.164;2023-08-24T01:47:23;3.10;;;2.10;;
21192;SDS011;10754;51.106;7.164;2023-08-24T01:49:50;2.17;;;1.98;;
21192;SDS011;10754;51.106;7.164;2023-08-24T01:52:16;3.92;;;2.55;;
21192;SDS011;10754;51.106;7.164;2023-08-24T01:54:42;2.38;;;1.98;;
21192;SDS011;10754;51.106;7.164;2023-08-24T01:57:08;2.90;;;1.73;;
21192;SDS011;10754;51.106;7.164;2023-08-24T01:59:35;3.00;;;1.67;;
21192;SDS011;10754;51.106;7.164;2023-08-24T02:02:00;4.35;;;2.05;;
21192;SDS011;10754;51.106;7.164;2023-08-24T02:04:26;4.05;;;2.15;;
21192;SDS011;10754;51.106;7.164;2023-08-24T02:06:51;4.35;;;2.42;;
21192;SDS011;10754;51.106;7.164;2023-08-24T02:09:17;2.30;;;1.77;;
21192;SDS011;10754;51.106;7.164;2023-08-24T02:11:42;2.00;;;1.63;;
21192;SDS011;10754;51.106;7.164;2023-08-24T02:14:08;2.42;;;2.22;;
21192;SDS011;10754;51.106;7.164;2023-08-24T02:16:33;4.15;;;2.45;;
21192;SDS011;10754;51.106;7.164;2023-08-24T02:19:00;3.90;;;2.15;;
21192;SDS011;10754;51.106;7.164;2023-08-24T02:21:26;2.97;;;2.22;;
21192;SDS011;10754;51.106;7.164;2023-08-24T02:23:51;2.50;;;1.98;;
21192;SDS011;10754;51.106;7.164;2023-08-24T02:26:17;4.00;;;1.90;;
21192;SDS011;10754;51.106;7.164;2023-08-24T02:28:42;4.80;;;2.28;;
21192;SDS011;10754;51.106;7.164;2023-08-24T02:31:08;4.00;;;2.20;;
21192;SDS011;10754;51.106;7.164;2023-08-24T02:33:34;2.97;;;1.85;;
21192;SDS011;10754;51.106;7.164;2023-08-24T02:36:00;4.28;;;1.90;;
21192;SDS011;10754;51.106;7.164;2023-08-24T02:38:26;2.42;;;2.00;;
21192;SDS011;10754;51.106;7.164;2023-08-24T02:41:04;3.25;;;1.83;;
21192;SDS011;10754;51.106;7.164;2023-08-24T02:43:30;4.45;;;2.38;;
21192;SDS011;10754;51.106;7.164;2023-08-24T02:46:02;5.22;;;2.63;;
21192;SDS011;10754;51.106;7.164;2023-08-24T02:48:29;4.55;;;2.13;;
21192;SDS011;10754;51.106;7.164;2023-08-24T02:50:56;3.00;;;2.05;;
21192;SDS011;10754;51.106;7.164;2023-08-24T02:53:23;2.50;;;1.92;;
21192;SDS011;10754;51.106;7.164;2023-08-24T02:55:48;3.75;;;2.38;;
21192;SDS011;10754;51.106;7.164;2023-08-24T02:58:14;3.03;;;2.10;;
21192;SDS011;10754;51.106;7.164;2023-08-24T03:00:40;4.75;;;2.17;;
21192;SDS011;10754;51.106;7.164;2023-08-24T03:03:05;3.28;;;1.95;;
21192;SDS011;10754;51.106;7.164;2023-08-24T03:05:31;3.00;;;1.70;;
21192;SDS011;10754;51.106;7.164;2023-08-24T03:08:00;3.67;;;2.08;;
21192;SDS011;10754;51.106;7.164;2023-08-24T03:10:25;4.13;;;2.28;;
21192;SDS011;10754;51.106;7.164;2023-08-24T03:12:51;2.72;;;1.95;;
21192;SDS011;10754;51.106;7.164;2023-08-24T03:15:17;2.45;;;1.90;;
21192;SDS011;10754;51.106;7.164;2023-08-24T03:17:42;2.70;;;1.98;;
21192;SDS011;10754;51.106;7.164;2023-08-24T03:20:08;3.47;;;2.03;;
21192;SDS011;10754;51.106;7.164;2023-08-24T03:22:35;3.83;;;2.22;;
21192;SDS011;10754;51.106;7.164;2023-08-24T03:25:01;2.72;;;2.10;;
21192;SDS011;10754;51.106;7.164;2023-08-24T03:27:26;2.97;;;1.90;;
21192;SDS011;10754;51.106;7.164;2023-08-24T03:29:53;2.58;;;1.90;;
21192;SDS011;10754;51.106;7.164;2023-08-24T03:32:18;4.75;;;2.60;;
21192;SDS011;10754;51.106;7.164;2023-08-24T03:34:44;4.07;;;2.25;;
21192;SDS011;10754;51.106;7.164;2023-08-24T03:37:09;2.60;;;1.63;;
21192;SDS011;10754;51.106;7.164;2023-08-24T03:39:38;4.50;;;1.83;;
21192;SDS011;10754;51.106;7.164;2023-08-24T03:42:06;2.03;;;1.77;;
21192;SDS011;10754;51.106;7.164;2023-08-24T03:44:31;4.03;;;1.85;;
21192;SDS011;10754;51.106;7.164;2023-08-24T03:46:57;4.85;;;2.30;;
21192;SDS011;10754;51.106;7.164;2023-08-24T03:49:23;3.90;;;2.15;;
21192;SDS011;10754;51.106;7.164;2023-08-24T03:51:48;2.80;;;2.22;;
21192;SDS011;10754;51.106;7.164;2023-08-24T03:54:14;4.45;;;2.20;;
21192;SDS011;10754;51.106;7.164;2023-08-24T03:56:39;7.25;;;2.35;;
21192;SDS011;10754;51.106;7.164;2023-08-24T03:59:05;4.38;;;2.33;;
21192;SDS011;10754;51.106;7.164;2023-08-24T04:01:30;3.83;;;2.00;;
21192;SDS011;10754;51.106;7.164;2023-08-24T04:03:56;3.33;;;2.40;;
21192;SDS011;10754;51.106;7.164;2023-08-24T04:06:22;2.95;;;1.92;;
21192;SDS011;10754;51.106;7.164;2023-08-24T04:08:48;3.67;;;2.17;;
21192;SDS011;10754;51.106;7.164;2023-08-24T04:11:14;2.85;;;1.95;;
21192;SDS011;10754;51.106;7.164;2023-08-24T04:13:39;3.03;;;2.63;;
21192;SDS011;10754;51.106;7.164;2023-08-24T04:16:05;3.95;;;1.80;;
21192;SDS011;10754;51.106;7.164;2023-08-24T04:18:31;2.15;;;1.95;;
21192;SDS011;10754;51.106;7.164;2023-08-24T04:20:56;2.53;;;2.20;;
21192;SDS011;10754;51.106;7.164;2023-08-24T04:23:25;5.28;;;2.03;;
21192;SDS011;10754;51.106;7.164;2023-08-24T04:25:51;4.00;;;2.20;;
21192;SDS011;10754;51.106;7.164;2023-08-24T04:28:18;3.20;;;1.90;;
21192;SDS011;10754;51.106;7.164;2023-08-24T04:30:50;4.90;;;2.13;;
21192;SDS011;10754;51.106;7.164;2023-08-24T04:33:19;2.95;;;2.05;;
21192;SDS011;10754;51.106;7.164;2023-08-24T04:35:45;3.28;;;1.85;;
21192;SDS011;10754;51.106;7.164;2023-08-24T04:38:15;2.88;;;2.10;;
21192;SDS011;10754;51.106;7.164;2023-08-24T04:40:48;3.72;;;2.00;;
21192;SDS011;10754;51.106;7.164;2023-08-24T04:43:16;5.53;;;2.50;;
21192;SDS011;10754;51.106;7.164;2023-08-24T04:45:42;5.05;;;2.40;;
21192;SDS011;10754;51.106;7.164;2023-08-24T04:48:07;2.40;;;2.05;;
21192;SDS011;10754;51.106;7.164;2023-08-24T04:50:33;4.03;;;2.20;;
21192;SDS011;10754;51.106;7.164;2023-08-24T04:52:58;3.65;;;2.33;;
21192;SDS011;10754;51.106;7.164;2023-08-24T04:55:24;4.90;;;2.20;;
21192;SDS011;10754;51.106;7.164;2023-08-24T04:57:49;4.28;;;2.35;;
21192;SDS011;10754;51.106;7.164;2023-08-24T05:00:15;6.25;;;2.80;;
21192;SDS011;10754;51.106;7.164;2023-08-24T05:02:43;10.77;;;2.67;;
21192;SDS011;10754;51.106;7.164;2023-08-24T05:05:09;3.42;;;2.40;;
21192;SDS011;10754;51.106;7.164;2023-08-24T05:07:35;3.22;;;2.45;;
21192;SDS011;10754;51.106;7.164;2023-08-24T05:10:02;2.47;;;2.13;;
21192;SDS011;10754;51.106;7.164;2023-08-24T05:12:28;3.40;;;2.50;;
21192;SDS011;10754;51.106;7.164;2023-08-24T05:14:54;3.75;;;2.45;;
21192;SDS011;10754;51.106;7.164;2023-08-24T05:17:20;4.43;;;2.63;;
21192;SDS011;10754;51.106;7.164;2023-08-24T05:19:50;3.97;;;2.70;;
21192;SDS011;10754;51.106;7.164;2023-08-24T05:22:16;4.95;;;2.97;;
21192;SDS011;10754;51.106;7.164;2023-08-24T05:24:41;5.63;;;2.90;;
21192;SDS011;10754;51.106;7.164;2023-08-24T05:27:07;4.07;;;2.88;;
21192;SDS011;10754;51.106;7.164;2023-08-24T05:29:32;4.75;;;2.80;;
21192;SDS011;10754;51.106;7.164;2023-08-24T05:31:58;2.95;;;2.53;;
21192;SDS011;10754;51.106;7.164;2023-08-24T05:34:24;4.65;;;2.85;;
21192;SDS011;10754;51.106;7.164;2023-08-24T05:36:50;4.75;;;2.70;;
21192;SDS011;10754;51.106;7.164;2023-08-24T05:39:15;3.13;;;2.58;;
21192;SDS011;10754;51.106;7.164;2023-08-24T05:41:41;4.40;;;3.03;;
21192;SDS011;10754;51.106;7.164;2023-08-24T05:44:06;3.35;;;2.50;;
21192;SDS011;10754;51.106;7.164;2023-08-24T05:46:32;3.42;;;2.78;;
21192;SDS011;10754;51.106;7.164;2023-08-24T05:48:58;3.83;;;2.75;;
21192;SDS011;10754;51.106;7.164;2023-08-24T05:51:24;6.70;;;3.00;;
21192;SDS011;10754;51.106;7.164;2023-08-24T05:53:50;3.95;;;2.78;;
21192;SDS011;10754;51.106;7.164;2023-08-24T05:56:20;3.53;;;2.40;;
21192;SDS011;10754;51.106;7.164;2023-08-24T05:58:46;6.15;;;3.03;;
21192;SDS011;10754;51.106;7.164;2023-08-24T06:01:12;5.07;;;2.70;;
21192;SDS011;10754;51.106;7.164;2023-08-24T06:03:37;4.65;;;2.47;;
21192;SDS011;10754;51.106;7.164;2023-08-24T06:06:03;2.47;;;2.28;;
21192;SDS011;10754;51.106;7.164;2023-08-24T06:08:29;2.60;;;2.10;;
21192;SDS011;10754;51.106;7.164;2023-08-24T06:10:56;5.65;;;2.45;;
21192;SDS011;10754;51.106;7.164;2023-08-24T06:13:22;4.18;;;2.47;;
21192;SDS011;10754;51.106;7.164;2023-08-24T06:15:47;4.35;;;2.78;;
21192;SDS011;10754;51.106;7.164;2023-08-24T06:18:13;3.92;;;2.55;;
21192;SDS011;10754;51.106;7.164;2023-08-24T06:20:38;3.40;;;2.40;;
21192;SDS011;10754;51.106;7.164;2023-08-24T06:23:04;5.75;;;2.97;;
21192;SDS011;10754;51.106;7.164;2023-08-24T06:25:30;5.35;;;2.60;;
21192;SDS011;10754;51.106;7.164;2023-08-24T06:27:57;3.65;;;2.35;;
21192;SDS011;10754;51.106;7.164;2023-08-24T06:30:24;3.50;;;2.30;;
21192;SDS011;10754;51.106;7.164;2023-08-24T06:32:52;2.95;;;2.20;;
21192;SDS011;10754;51.106;7.164;2023-08-24T06:35:18;2.92;;;2.50;;
21192;SDS011;10754;51.106;7.164;2023-08-24T06:37:44;2.50;;;2.30;;
21192;SDS011;10754;51.106;7.164;2023-08-24T06:40:09;2.50;;;2.08;;
21192;SDS011;10754;51.106;7.164;2023-08-24T06:42:35;2.58;;;1.95;;
21192;SDS011;10754;51.106;7.164;2023-08-24T06:45:01;2.83;;;2.28;;
21192;SDS011;10754;51.106;7.164;2023-08-24T06:47:26;3.97;;;2.40;;
21192;SDS011;10754;51.106;7.164;2023-08-24T06:49:52;4.70;;;2.22;;
21192;SDS011;10754;51.106;7.164;2023-08-24T06:52:17;3.22;;;2.10;;
21192;SDS011;10754;51.106;7.164;2023-08-24T06:54:44;4.40;;;2.50;;
21192;SDS011;10754;51.106;7.164;2023-08-24T06:57:09;5.45;;;2.78;;
21192;SDS011;10754;51.106;7.164;2023-08-24T06:59:35;2.95;;;2.20;;
21192;SDS011;10754;51.106;7.164;2023-08-24T07:02:00;3.80;;;2.60;;
21192;SDS011;10754;51.106;7.164;2023-08-24T07:04:26;2.88;;;2.13;;
21192;SDS011;10754;51.106;7.164;2023-08-24T07:06:52;2.70;;;2.03;;
21192;SDS011;10754;51.106;7.164;2023-08-24T07:09:18;3.20;;;2.13;;
21192;SDS011;10754;51.106;7.164;2023-08-24T07:11:44;2.70;;;2.00;;
21192;SDS011;10754;51.106;7.164;2023-08-24T07:14:10;3.28;;;2.20;;
21192;SDS011;10754;51.106;7.164;2023-08-24T07:16:35;4.43;;;2.05;;
21192;SDS011;10754;51.106;7.164;2023-08-24T07:19:01;2.05;;;1.85;;
21192;SDS011;10754;51.106;7.164;2023-08-24T07:21:27;3.63;;;1.73;;
21192;SDS011;10754;51.106;7.164;2023-08-24T07:23:52;4.88;;;2.08;;
21192;SDS011;10754;51.106;7.164;2023-08-24T07:26:18;3.47;;;1.58;;
21192;SDS011;10754;51.106;7.164;2023-08-24T07:28:44;2.30;;;1.77;;
21192;SDS011;10754;51.106;7.164;2023-08-24T07:31:10;2.53;;;1.80;;
21192;SDS011;10754;51.106;7.164;2023-08-24T07:33:36;3.95;;;1.63;;
21192;SDS011;10754;51.106;7.164;2023-08-24T07:36:05;5.00;;;1.73;;
21192;SDS011;10754;51.106;7.164;2023-08-24T07:38:31;3.72;;;1.73;;
21192;SDS011;10754;51.106;7.164;2023-08-24T07:40:57;3.05;;;1.63;;
21192;SDS011;10754;51.106;7.164;2023-08-24T07:43:23;4.53;;;1.45;;
21192;SDS011;10754;51.106;7.164;2023-08-24T07:45:49;1.52;;;1.40;;
21192;SDS011;10754;51.106;7.164;2023-08-24T07:48:15;2.80;;;1.80;;
21192;SDS011;10754;51.106;7.164;2023-08-24T07:50:40;2.35;;;1.70;;
21192;SDS011;10754;51.106;7.164;2023-08-24T07:53:06;2.40;;;1.40;;
21192;SDS011;10754;51.106;7.164;2023-08-24T07:55:31;1.80;;;1.52;;
21192;SDS011;10754;51.106;7.164;2023-08-24T07:57:57;6.22;;;1.85;;
21192;SDS011;10754;51.106;7.164;2023-08-24T08:00:22;5.40;;;1.60;;
21192;SDS011;10754;51.106;7.164;2023-08-24T08:02:50;6.05;;;1.67;;
21192;SDS011;10754;51.106;7.164;2023-08-24T08:05:16;2.58;;;1.50;;
21192;SDS011;10754;51.106;7.164;2023-08-24T08:07:42;2.10;;;1.70;;
21192;SDS011;10754;51.106;7.164;2023-08-24T08:10:08;5.07;;;1.52;;
21192;SDS011;10754;51.106;7.164;2023-08-24T08:12:34;3.22;;;1.60;;
21192;SDS011;10754;51.106;7.164;2023-08-24T08:15:00;3.05;;;1.33;;
21192;SDS011;10754;51.106;7.164;2023-08-24T08:17:26;1.90;;;1.40;;
21192;SDS011;10754;51.106;7.164;2023-08-24T08:19:56;1.90;;;1.50;;
21192;SDS011;10754;51.106;7.164;2023-08-24T08:22:22;2.58;;;1.73;;
21192;SDS011;10754;51.106;7.164;2023-08-24T08:24:48;2.40;;;1.70;;
21192;SDS011;10754;51.106;7.164;2023-08-24T08:27:14;2.08;;;1.88;;
21192;SDS011;10754;51.106;7.164;2023-08-24T08:29:40;2.28;;;1.50;;
21192;SDS011;10754;51.106;7.164;2023-08-24T08:32:05;2.35;;;1.65;;
21192;SDS011;10754;51.106;7.164;2023-08-24T08:34:32;2.38;;;1.70;;
21192;SDS011;10754;51.106;7.164;2023-08-24T08:36:58;2.78;;;1.52;;
21192;SDS011;10754;51.106;7.164;2023-08-24T08:39:23;2.40;;;1.75;;
21192;SDS011;10754;51.106;7.164;2023-08-24T08:41:49;3.05;;;1.77;;
21192;SDS011;10754;51.106;7.164;2023-08-24T08:44:14;3.22;;;1.80;;
21192;SDS011;10754;51.106;7.164;2023-08-24T08:46:41;4.13;;;1.80;;
21192;SDS011;10754;51.106;7.164;2023-08-24T08:49:08;2.67;;;1.80;;
21192;SDS011;10754;51.106;7.164;2023-08-24T08:51:37;3.30;;;2.00;;
21192;SDS011;10754;51.106;7.164;2023-08-24T08:54:04;2.78;;;1.60;;
21192;SDS011;10754;51.106;7.164;2023-08-24T08:56:30;2.25;;;1.77;;
21192;SDS011;10754;51.106;7.164;2023-08-24T08:58:56;2.38;;;1.60;;
21192;SDS011;10754;51.106;7.164;2023-08-24T09:01:25;3.30;;;1.35;;
21192;SDS011;10754;51.106;7.164;2023-08-24T09:03:52;2.10;;;1.60;;
21192;SDS011;10754;51.106;7.164;2023-08-24T09:06:18;2.70;;;1.60;;
21192;SDS011;10754;51.106;7.164;2023-08-24T09:08:44;2.03;;;1.27;;
21192;SDS011;10754;51.106;7.164;2023-08-24T09:11:10;2.08;;;1.30;;
21192;SDS011;10754;51.106;7.164;2023-08-24T09:13:35;1.42;;;1.33;;
21192;SDS011;10754;51.106;7.164;2023-08-24T09:16:07;2.45;;;1.55;;
21192;SDS011;10754;51.106;7.164;2023-08-24T09:18:37;2.67;;;1.55;;
21192;SDS011;10754;51.106;7.164;2023-08-24T09:21:07;1.70;;;1.50;;
21192;SDS011;10754;51.106;7.164;2023-08-24T09:23:38;1.40;;;1.30;;
21192;SDS011;10754;51.106;7.164;2023-08-24T09:26:09;3.88;;;1.58;;
21192;SDS011;10754;51.106;7.164;2023-08-24T09:28:35;2.63;;;1.60;;
21192;SDS011;10754;51.106;7.164;2023-08-24T09:31:01;1.85;;;1.70;;
21192;SDS011;10754;51.106;7.164;2023-08-24T09:33:29;1.38;;;1.20;;
21192;SDS011;10754;51.106;7.164;2023-08-24T09:35:55;2.17;;;1.63;;
21192;SDS011;10754;51.106;7.164;2023-08-24T09:38:26;1.70;;;1.40;;
21192;SDS011;10754;51.106;7.164;2023-08-24T09:40:52;2.13;;;1.80;;
21192;SDS011;10754;51.106;7.164;2023-08-24T09:43:19;2.80;;;1.63;;
21192;SDS011;10754;51.106;7.164;2023-08-24T09:48:20;2.15;;;1.48;;
21192;SDS011;10754;51.106;7.164;2023-08-24T09:50:47;3.03;;;1.50;;
21192;SDS011;10754;51.106;7.164;2023-08-24T09:53:15;3.08;;;1.52;;
21192;SDS011;10754;51.106;7.164;2023-08-24T09:56:01;2.85;;;1.70;;
21192;SDS011;10754;51.106;7.164;2023-08-24T09:58:28;2.03;;;1.25;;
21192;SDS011;10754;51.106;7.164;2023-08-24T10:00:54;2.75;;;1.55;;
21192;SDS011;10754;51.106;7.164;2023-08-24T10:03:24;2.50;;;1.20;;
21192;SDS011;10754;51.106;7.164;2023-08-24T10:05:51;2.13;;;1.65;;
21192;SDS011;10754;51.106;7.164;2023-08-24T10:08:24;2.55;;;1.80;;
21192;SDS011;10754;51.106;7.164;2023-08-24T10:10:53;2.20;;;1.38;;
21192;SDS011;10754;51.106;7.164;2023-08-24T10:13:23;2.60;;;1.70;;
21192;SDS011;10754;51.106;7.164;2023-08-24T10:16:10;2.95;;;1.55;;
21192;SDS011;10754;51.106;7.164;2023-08-24T10:18:38;4.38;;;1.40;;
21192;SDS011;10754;51.106;7.164;2023-08-24T10:21:06;1.50;;;1.40;;
21192;SDS011;10754;51.106;7.164;2023-08-24T10:23:32;3.10;;;1.60;;
21192;SDS011;10754;51.106;7.164;2023-08-24T10:26:02;2.85;;;1.58;;
21192;SDS011;10754;51.106;7.164;2023-08-24T10:28:29;3.10;;;1.65;;
21192;SDS011;10754;51.106;7.164;2023-08-24T10:30:55;1.55;;;1.40;;
21192;SDS011;10754;51.106;7.164;2023-08-24T10:33:22;2.92;;;1.70;;
21192;SDS011;10754;51.106;7.164;2023-08-24T10:35:48;1.58;;;1.40;;
21192;SDS011;10754;51.106;7.164;2023-08-24T10:38:24;2.20;;;1.70;;
21192;SDS011;10754;51.106;7.164;2023-08-24T10:40:51;2.75;;;1.20;;
21192;SDS011;10754;51.106;7.164;2023-08-24T10:43:16;2.20;;;1.55;;
21192;SDS011;10754;51.106;7.164;2023-08-24T10:46:00;2.55;;;1.70;;
21192;SDS011;10754;51.106;7.164;2023-08-24T10:48:29;1.65;;;1.50;;
21192;SDS011;10754;51.106;7.164;2023-08-24T10:53:47;4.55;;;1.60;;
21192;SDS011;10754;51.106;7.164;2023-08-24T10:56:17;3.20;;;1.50;;
21192;SDS011;10754;51.106;7.164;2023-08-24T10:58:44;2.65;;;1.63;;
21192;SDS011;10754;51.106;7.164;2023-08-24T11:01:17;1.88;;;1.55;;
21192;SDS011;10754;51.106;7.164;2023-08-24T11:03:48;2.42;;;1.60;;
21192;SDS011;10754;51.106;7.164;2023-08-24T11:06:22;2.92;;;1.48;;
21192;SDS011;10754;51.106;7.164;2023-08-24T11:08:48;1.67;;;1.45;;
21192;SDS011;10754;51.106;7.164;2023-08-24T11:11:18;2.75;;;1.70;;
21192;SDS011;10754;51.106;7.164;2023-08-24T11:16:47;3.63;;;1.77;;
21192;SDS011;10754;51.106;7.164;2023-08-24T11:19:14;2.55;;;1.60;;
21192;SDS011;10754;51.106;7.164;2023-08-24T11:21:41;2.22;;;1.80;;
21192;SDS011;10754;51.106;7.164;2023-08-24T11:24:09;3.30;;;1.50;;
21192;SDS011;10754;51.106;7.164;2023-08-24T11:26:41;1.70;;;1.60;;
21192;SDS011;10754;51.106;7.164;2023-08-24T11:29:11;2.60;;;1.60;;
21192;SDS011;10754;51.106;7.164;2023-08-24T11:31:37;3.33;;;1.48;;
21192;SDS011;10754;51.106;7.164;2023-08-24T11:34:04;4.60;;;1.98;;
21192;SDS011;10754;51.106;7.164;2023-08-24T11:36:32;3.47;;;1.80;;
21192;SDS011;10754;51.106;7.164;2023-08-24T11:39:06;2.67;;;1.70;;
21192;SDS011;10754;51.106;7.164;2023-08-24T11:41:38;3.22;;;1.70;;
21192;SDS011;10754;51.106;7.164;2023-08-24T11:44:04;3.42;;;1.90;;
21192;SDS011;10754;51.106;7.164;2023-08-24T11:46:29;3.38;;;1.75;;
21192;SDS011;10754;51.106;7.164;2023-08-24T11:48:56;2.10;;;1.63;;
21192;SDS011;10754;51.106;7.164;2023-08-24T11:51:22;3.88;;;1.88;;
21192;SDS011;10754;51.106;7.164;2023-08-24T11:53:48;2.58;;;1.50;;
21192;SDS011;10754;51.106;7.164;2023-08-24T11:56:14;2.58;;;1.33;;
21192;SDS011;10754;51.106;7.164;2023-08-24T11:58:42;2.88;;;1.73;;
21192;SDS011;10754;51.106;7.164;2023-08-24T12:01:09;2.38;;;1.45;;
21192;SDS011;10754;51.106;7.164;2023-08-24T12:03:39;4.25;;;1.58;;
21192;SDS011;10754;51.106;7.164;2023-08-24T12:06:11;3.00;;;1.30;;
21192;SDS011;10754;51.106;7.164;2023-08-24T12:08:42;2.58;;;1.80;;
21192;SDS011;10754;51.106;7.164;2023-08-24T12:13:42;3.60;;;1.70;;
21192;SDS011;10754;51.106;7.164;2023-08-24T12:16:09;2.35;;;1.52;;
21192;SDS011;10754;51.106;7.164;2023-08-24T12:18:46;3.28;;;1.40;;
21192;SDS011;10754;51.106;7.164;2023-08-24T12:21:19;2.83;;;1.70;;
21192;SDS011;10754;51.106;7.164;2023-08-24T12:26:34;2.88;;;1.50;;
21192;SDS011;10754;51.106;7.164;2023-08-24T12:29:00;3.10;;;1.58;;
21192;SDS011;10754;51.106;7.164;2023-08-24T12:31:28;4.32;;;1.63;;
21192;SDS011;10754;51.106;7.164;2023-08-24T12:34:14;2.65;;;1.60;;
21192;SDS011;10754;51.106;7.164;2023-08-24T12:36:41;4.45;;;2.17;;
21192;SDS011;10754;51.106;7.164;2023-08-24T12:39:08;3.65;;;1.75;;
21192;SDS011;10754;51.106;7.164;2023-08-24T12:41:37;3.90;;;1.70;;
21192;SDS011;10754;51.106;7.164;2023-08-24T12:44:03;3.25;;;1.73;;
21192;SDS011;10754;51.106;7.164;2023-08-24T12:46:33;3.80;;;1.77;;
21192;SDS011;10754;51.106;7.164;2023-08-24T12:49:00;2.53;;;1.67;;
21192;SDS011;10754;51.106;7.164;2023-08-24T12:51:25;3.00;;;1.55;;
21192;SDS011;10754;51.106;7.164;2023-08-24T12:53:54;3.17;;;1.48;;
21192;SDS011;10754;51.106;7.164;2023-08-24T12:56:20;3.17;;;1.88;;
21192;SDS011;10754;51.106;7.164;2023-08-24T12:58:45;3.70;;;1.50;;
21192;SDS011;10754;51.106;7.164;2023-08-24T13:01:11;3.42;;;2.00;;
21192;SDS011;10754;51.106;7.164;2023-08-24T13:03:37;2.10;;;1.50;;
21192;SDS011;10754;51.106;7.164;2023-08-24T13:06:04;3.17;;;2.10;;
21192;SDS011;10754;51.106;7.164;2023-08-24T13:08:32;3.92;;;2.30;;
21192;SDS011;10754;51.106;7.164;2023-08-24T13:10:58;2.88;;;2.13;;
21192;SDS011;10754;51.106;7.164;2023-08-24T13:13:24;4.30;;;1.90;;
21192;SDS011;10754;51.106;7.164;2023-08-24T13:15:50;3.05;;;1.60;;
21192;SDS011;10754;51.106;7.164;2023-08-24T13:18:15;6.63;;;2.38;;
21192;SDS011;10754;51.106;7.164;2023-08-24T13:20:42;2.67;;;1.80;;
21192;SDS011;10754;51.106;7.164;2023-08-24T13:23:07;2.97;;;1.98;;
21192;SDS011;10754;51.106;7.164;2023-08-24T13:25:33;3.05;;;1.98;;
21192;SDS011;10754;51.106;7.164;2023-08-24T13:27:58;4.05;;;2.35;;
21192;SDS011;10754;51.106;7.164;2023-08-24T13:30:24;2.92;;;2.03;;
21192;SDS011;10754;51.106;7.164;2023-08-24T13:32:50;3.65;;;2.65;;
21192;SDS011;10754;51.106;7.164;2023-08-24T13:35:15;3.42;;;2.17;;
21192;SDS011;10754;51.106;7.164;2023-08-24T13:37:41;5.95;;;2.63;;
21192;SDS011;10754;51.106;7.164;2023-08-24T13:40:06;4.85;;;2.50;;
21192;SDS011;10754;51.106;7.164;2023-08-24T13:42:33;5.10;;;2.13;;
21192;SDS011;10754;51.106;7.164;2023-08-24T13:44:58;4.88;;;2.30;;
21192;SDS011;10754;51.106;7.164;2023-08-24T13:47:24;4.80;;;2.40;;
21192;SDS011;10754;51.106;7.164;2023-08-24T13:49:49;6.57;;;2.42;;
21192;SDS011;10754;51.106;7.164;2023-08-24T13:52:15;6.07;;;2.55;;
21192;SDS011;10754;51.106;7.164;2023-08-24T13:54:41;3.83;;;2.45;;
21192;SDS011;10754;51.106;7.164;2023-08-24T13:57:08;5.78;;;2.30;;
21192;SDS011;10754;51.106;7.164;2023-08-24T13:59:33;3.70;;;2.15;;
21192;SDS011;10754;51.106;7.164;2023-08-24T14:01:59;5.10;;;2.25;;
21192;SDS011;10754;51.106;7.164;2023-08-24T14:04:24;3.60;;;2.47;;
21192;SDS011;10754;51.106;7.164;2023-08-24T14:06:50;4.82;;;2.38;;
21192;SDS011;10754;51.106;7.164;2023-08-24T14:09:15;4.70;;;2.22;;
21192;SDS011;10754;51.106;7.164;2023-08-24T14:11:41;5.70;;;2.15;;
21192;SDS011;10754;51.106;7.164;2023-08-24T14:14:07;5.88;;;2.95;;
21192;SDS011;10754;51.106;7.164;2023-08-24T14:16:33;6.65;;;2.75;;
21192;SDS011;10754;51.106;7.164;2023-08-24T14:18:58;3.00;;;2.15;;
21192;SDS011;10754;51.106;7.164;2023-08-24T14:21:24;6.43;;;2.70;;
21192;SDS011;10754;51.106;7.164;2023-08-24T14:23:49;4.65;;;2.20;;
21192;SDS011;10754;51.106;7.164;2023-08-24T14:26:15;2.60;;;1.80;;
21192;SDS011;10754;51.106;7.164;2023-08-24T14:28:48;6.47;;;2.60;;
21192;SDS011;10754;51.106;7.164;2023-08-24T14:31:25;3.40;;;2.25;;
21192;SDS011;10754;51.106;7.164;2023-08-24T14:33:52;2.92;;;2.10;;
21192;SDS011;10754;51.106;7.164;2023-08-24T14:36:18;3.15;;;2.20;;
21192;SDS011;10754;51.106;7.164;2023-08-24T14:38:45;4.47;;;1.75;;
21192;SDS011;10754;51.106;7.164;2023-08-24T14:41:11;5.75;;;2.17;;
21192;SDS011;10754;51.106;7.164;2023-08-24T14:43:38;3.95;;;1.95;;
21192;SDS011;10754;51.106;7.164;2023-08-24T14:46:04;3.78;;;2.10;;
21192;SDS011;10754;51.106;7.164;2023-08-24T14:48:30;3.67;;;2.03;;
21192;SDS011;10754;51.106;7.164;2023-08-24T14:50:56;2.08;;;1.85;;
21192;SDS011;10754;51.106;7.164;2023-08-24T14:53:24;4.22;;;2.17;;
21192;SDS011;10754;51.106;7.164;2023-08-24T14:55:54;2.92;;;2.13;;
21192;SDS011;10754;51.106;7.164;2023-08-24T14:58:21;2.95;;;1.90;;
21192;SDS011;10754;51.106;7.164;2023-08-24T15:00:47;2.67;;;1.98;;
21192;SDS011;10754;51.106;7.164;2023-08-24T15:03:16;2.45;;;1.80;;
21192;SDS011;10754;51.106;7.164;2023-08-24T15:05:43;3.60;;;1.95;;